Time;durP1;ratioP1;P1;durP2;ratioP2;P2;SDS_P1;SDS_P2;PMS_P1;PMS_P2;Temp;Humidity;BMP_temperature;BMP_pressure;BME280_temperature;BME280_humidity;BME280_pressure;Samples;Min_cycle;Max_cycle;Signal;HPM_P1;HPM_P2
2022/12/10 00:01:08;;;;;;;62.53;21.10;;;;;;;8.20;88.13;99313.16;3145972;28;20106;-69
2022/12/10 00:02:40;;;;;;;67.45;23.15;;;;;;;8.20;87.81;99305.38;3146428;28;20055;-70
2022/12/10 00:04:12;;;;;;;64.07;21.45;;;;;;;7.41;87.90;99173.06;3146220;28;20091;-69
2022/12/10 00:05:44;;;;;;;53.63;19.90;;;;;;;8.22;88.20;99311.31;3146588;28;20094;-68
2022/12/10 00:07:16;;;;;;;60.83;19.17;;;;;;;8.23;87.98;99307.00;3146091;28;20057;-68
2022/12/10 00:08:47;;;;;;;54.53;20.38;;;;;;;8.14;87.90;99290.06;3146247;28;20052;-70
2022/12/10 00:10:19;;;;;;;61.22;19.52;;;;;;;8.17;87.89;99300.31;3146238;28;20045;-69
2022/12/10 00:11:52;;;;;;;51.80;17.70;;;;;;;8.18;87.91;99291.59;3146153;28;20048;-69
2022/12/10 00:13:23;;;;;;;57.08;19.20;;;;;;;8.21;88.14;99289.72;3146117;28;20053;-69
2022/12/10 00:14:55;;;;;;;60.97;19.48;;;;;;;8.20;88.14;99300.19;3145743;28;20127;-69
2022/12/10 00:16:30;;;;;;;58.22;20.58;;;;;;;8.19;87.55;99295.88;3146388;28;20044;-69
2022/12/10 00:18:01;;;;;;;60.88;21.15;;;;;;;8.10;87.86;99288.50;3146195;28;20056;-68
2022/12/10 00:19:32;;;;;;;52.55;19.10;;;;;;;8.20;87.90;99303.59;3145961;28;20696;-68
2022/12/10 00:21:04;;;;;;;55.17;19.95;;;;;;;8.20;88.15;99306.19;3146035;28;20056;-69
2022/12/10 00:22:36;;;;;;;66.30;21.63;;;;;;;8.20;87.77;99305.38;3146176;28;20041;-69
2022/12/10 00:24:10;;;;;;;60.85;20.15;;;;;;;7.83;87.93;99242.09;3146097;28;20048;-69
2022/12/10 00:25:41;;;;;;;58.53;19.45;;;;;;;8.16;87.90;99293.41;3145827;28;20052;-68
2022/12/10 00:27:14;;;;;;;57.95;19.75;;;;;;;8.20;87.87;99302.78;3145933;28;20174;-70
2022/12/10 00:28:46;;;;;;;65.32;20.95;;;;;;;8.20;88.08;99315.75;3146203;28;20488;-69
2022/12/10 00:30:18;;;;;;;55.13;20.13;;;;;;;8.19;88.21;99314.03;3145562;28;20048;-68
2022/12/10 00:31:50;;;;;;;65.93;21.88;;;;;;;8.18;88.00;99308.00;3145789;28;20573;-68
2022/12/10 00:33:22;;;;;;;63.97;21.17;;;;;;;8.18;87.85;99302.81;3145562;28;20055;-68
2022/12/10 00:34:54;;;;;;;60.13;20.70;;;;;;;8.11;88.02;99282.44;3145821;28;20052;-69
2022/12/10 00:36:30;;;;;;;61.05;21.08;;;;;;;8.19;87.98;99293.28;3146202;28;20084;-68
2022/12/10 00:38:01;;;;;;;68.70;22.27;;;;;;;8.15;88.21;99291.75;3133314;28;20057;-68
2022/12/10 00:39:32;;;;;;;61.90;21.83;;;;;;;8.14;87.84;99295.25;3144239;28;20537;-68
2022/12/10 00:41:04;;;;;;;67.15;21.85;;;;;;;8.14;87.98;99314.25;3145908;28;20135;-68
2022/12/10 00:42:38;;;;;;;63.05;21.38;;;;;;;8.18;88.14;99320.97;3145743;28;20554;-68
2022/12/10 00:44:10;;;;;;;71.63;21.85;;;;;;;8.15;88.08;99317.69;3145727;28;20044;-68
2022/12/10 00:45:41;;;;;;;72.78;21.30;;;;;;;8.15;88.22;99315.09;3145612;28;20056;-68
2022/12/10 00:47:13;;;;;;;60.88;20.02;;;;;;;8.10;87.90;99298.88;3145849;28;20159;-69
2022/12/10 00:48:45;;;;;;;64.82;22.83;;;;;;;8.14;87.97;99305.63;3145681;28;20118;-68
2022/12/10 00:50:17;;;;;;;69.35;20.95;;;;;;;8.14;88.27;99308.22;3145884;28;20056;-69
2022/12/10 00:51:49;;;;;;;64.65;19.92;;;;;;;8.15;88.08;99309.91;3145817;28;20048;-68
2022/12/10 00:53:20;;;;;;;65.47;21.13;;;;;;;8.12;88.02;99299.66;3145356;28;20047;-68
2022/12/10 00:54:52;;;;;;;74.50;22.48;;;;;;;8.16;87.88;99302.06;3145533;28;20803;-68
2022/12/10 00:56:26;;;;;;;66.18;20.30;;;;;;;7.48;88.19;99200.41;3145785;28;20547;-68
2022/12/10 00:57:59;;;;;;;71.13;21.33;;;;;;;8.18;88.32;99302.81;3145575;28;20132;-68
2022/12/10 00:59:31;;;;;;;63.65;21.63;;;;;;;8.13;87.97;99291.81;3145617;28;20106;-68
2022/12/10 01:01:20;;;;;;;65.95;22.02;;;;;;;8.16;88.21;99304.66;3144830;28;20048;-68
2022/12/10 01:02:54;;;;;;;67.18;20.70;;;;;;;7.79;88.52;99250.94;3145383;28;20040;-68
2022/12/10 01:04:26;;;;;;;57.35;19.63;;;;;;;8.13;88.65;99302.19;3145737;28;20506;-68
2022/12/10 01:05:57;;;;;;;66.43;19.67;;;;;;;8.12;88.65;99299.66;3145591;28;20049;-67
2022/12/10 01:07:29;;;;;;;59.03;21.25;;;;;;;8.00;88.59;99269.06;3145464;28;20045;-68
2022/12/10 01:09:05;;;;;;;71.70;23.30;;;;;;;8.11;88.44;99297.97;3144425;28;20079;-67
2022/12/10 01:10:37;;;;;;;64.28;22.05;;;;;;;7.99;88.40;99278.59;3140380;28;20156;-68
2022/12/10 01:12:09;;;;;;;72.78;22.45;;;;;;;8.13;88.50;99303.94;3140197;28;20630;-68
2022/12/10 01:13:44;;;;;;;74.18;23.92;;;;;;;8.15;88.89;99292.59;3140386;28;20516;-68
2022/12/10 01:15:16;;;;;;;80.68;24.00;;;;;;;8.03;88.83;99261.16;3140019;28;20052;-68
2022/12/10 01:16:48;;;;;;;78.82;24.02;;;;;;;8.18;88.95;99289.84;3140282;28;20052;-68
2022/12/10 01:18:19;;;;;;;72.53;22.33;;;;;;;8.15;89.15;99283.97;3140495;28;20098;-68
2022/12/10 01:19:51;;;;;;;80.13;25.95;;;;;;;8.19;88.83;99285.50;3140215;28;20581;-67
2022/12/10 01:21:24;;;;;;;70.03;22.38;;;;;;;8.02;88.63;99243.94;3140134;28;20235;-68
2022/12/10 01:22:56;;;;;;;71.30;22.00;;;;;;;8.17;89.16;99270.03;3140154;28;20052;-68
2022/12/10 01:24:29;;;;;;;72.32;22.10;;;;;;;7.81;88.75;99212.84;3140397;28;20048;-67
2022/12/10 01:26:01;;;;;;;72.85;23.60;;;;;;;8.18;88.83;99268.25;3140195;28;20602;-68
2022/12/10 01:27:33;;;;;;;72.13;23.70;;;;;;;8.18;88.89;99273.47;3140089;28;20587;-68
2022/12/10 01:29:06;;;;;;;61.53;22.23;;;;;;;8.15;88.90;99268.41;3140090;28;20055;-68
2022/12/10 01:30:37;;;;;;;;;;;;;;;8.11;88.86;99264.28;3139921;28;20544;-68
2022/12/10 01:32:09;;;;;;;63.38;20.65;;;;;;;8.10;89.16;99266.00;3137065;28;19924;-68
2022/12/10 01:33:40;;;;;;;74.35;23.92;;;;;;;8.09;89.05;99253.13;3139866;28;20078;-68
2022/12/10 01:35:12;;;;;;;76.15;23.90;;;;;;;8.01;88.86;99240.47;3140158;28;20498;-68
2022/12/10 01:36:46;;;;;;;78.80;24.75;;;;;;;7.81;88.84;99204.19;3140065;28;20056;-68
2022/12/10 01:38:17;;;;;;;79.88;25.33;;;;;;;8.15;88.97;99263.22;3139937;28;20048;-69
2022/12/10 01:39:49;;;;;;;74.93;25.40;;;;;;;8.12;88.62;99256.41;3140152;28;20552;-70
2022/12/10 01:41:21;;;;;;;79.50;24.60;;;;;;;8.16;88.73;99251.91;3140048;28;20155;-69
2022/12/10 01:42:53;;;;;;;81.60;26.70;;;;;;;8.16;88.75;99250.19;3139900;28;20101;-68
2022/12/10 01:45:09;;;;;;;79.82;26.58;;;;;;;8.16;88.80;99254.50;3139936;28;20457;-71
2022/12/10 01:46:43;;;;;;;80.07;27.40;;;;;;;8.14;88.51;99258.94;3137430;28;20052;-68
2022/12/10 01:48:15;;;;;;;93.85;29.27;;;;;;;8.13;88.65;99249.47;3139642;28;20061;-69
2022/12/10 01:49:45;;;;;;;97.18;30.52;;;;;;;8.13;88.85;99249.47;3139815;28;20057;-68
2022/12/10 01:51:18;;;;;;;99.07;29.58;;;;;;;8.15;88.80;99258.03;3139766;28;20053;-68
2022/12/10 01:52:50;;;;;;;94.80;30.40;;;;;;;8.15;88.77;99250.25;3139589;28;20052;-68
2022/12/10 01:54:24;;;;;;;87.75;30.73;;;;;;;8.15;88.81;99253.69;3139943;28;20097;-68
2022/12/10 01:55:56;;;;;;;89.78;29.15;;;;;;;8.15;88.92;99248.50;3139849;28;20552;-68
2022/12/10 01:57:29;;;;;;;105.97;30.08;;;;;;;8.14;89.07;99241.63;3139464;28;20084;-68
2022/12/10 01:59:01;;;;;;;105.05;32.42;;;;;;;8.13;88.79;99234.78;3139613;28;20052;-68
2022/12/10 02:00:42;;;;;;;101.82;32.00;;;;;;;8.11;89.01;99225.38;3139471;28;20065;-69
2022/12/10 02:02:23;;;;;;;105.78;31.85;;;;;;;8.10;88.95;99234.03;3139614;28;20052;-68
2022/12/10 02:04:08;;;;;;;93.90;30.98;;;;;;;7.80;89.01;99182.63;3139530;28;20044;-69
2022/12/10 02:05:43;;;;;;;97.25;29.92;;;;;;;8.10;89.14;99241.81;3139497;28;20454;-68
2022/12/10 02:07:23;;;;;;;98.95;32.38;;;;;;;7.74;88.81;99182.88;3139733;28;20052;-68
2022/12/10 02:09:08;;;;;;;95.13;31.13;;;;;;;8.09;89.05;99242.75;3139514;28;20597;-69
2022/12/10 02:10:51;;;;;;;96.53;30.30;;;;;;;8.08;89.30;99236.72;3139919;28;20056;-70
2022/12/10 02:12:29;;;;;;;97.00;31.08;;;;;;;8.10;89.25;99223.66;3138611;28;20086;-70
2022/12/10 02:14:07;;;;;;;89.85;30.42;;;;;;;8.09;89.11;99222.00;3138776;28;20048;-70
2022/12/10 02:15:43;;;;;;;94.20;30.88;;;;;;;8.10;88.94;99215.88;3139335;28;20112;-70
2022/12/10 02:17:20;;;;;;;92.03;30.67;;;;;;;8.11;89.37;99235.75;3139454;28;20059;-70
2022/12/10 02:18:57;;;;;;;91.18;31.00;;;;;;;8.11;88.92;99220.19;3139686;28;20052;-69
2022/12/10 02:20:34;;;;;;;93.72;31.35;;;;;;;8.07;89.15;99209.06;3139408;28;20113;-69
2022/12/10 02:22:06;;;;;;;91.75;29.70;;;;;;;8.09;89.28;99215.06;3139455;28;20171;-69
2022/12/10 02:23:42;;;;;;;90.70;31.02;;;;;;;8.10;88.87;99234.88;3139013;28;20224;-69
2022/12/10 02:25:16;;;;;;;85.15;28.15;;;;;;;7.77;88.92;99181.91;3139409;28;20054;-69
2022/12/10 02:26:56;;;;;;;93.32;27.55;;;;;;;8.09;88.88;99222.00;3139143;28;20074;-69
2022/12/10 02:28:38;;;;;;;79.50;26.95;;;;;;;8.04;89.10;99226.53;3139290;28;20158;-69
2022/12/10 02:30:12;;;;;;;83.63;28.80;;;;;;;8.04;88.93;99229.13;3139163;28;20056;-69
2022/12/10 02:31:48;;;;;;;82.60;27.00;;;;;;;8.01;89.20;99222.31;3133800;28;20486;-69
2022/12/10 02:33:23;;;;;;;81.00;28.50;;;;;;;8.05;89.26;99216.09;3139080;28;20491;-69
2022/12/10 02:34:59;;;;;;;74.60;26.70;;;;;;;8.05;89.12;99236.00;3139185;28;20148;-69
2022/12/10 02:36:36;;;;;;;74.65;25.58;;;;;;;8.03;89.25;99235.22;3139721;28;20109;-69
2022/12/10 02:38:12;;;;;;;73.88;27.05;;;;;;;8.04;89.17;99234.31;3139417;28;20111;-69
2022/12/10 02:39:50;;;;;;;86.55;27.48;;;;;;;7.73;88.67;99183.81;3127174;28;20251;-69
2022/12/10 02:41:27;;;;;;;84.97;26.85;;;;;;;8.09;88.80;99234.97;3138936;28;20052;-69
2022/12/10 02:42:58;;;;;;;79.32;27.73;;;;;;;8.08;88.85;99235.88;3139360;28;20056;-70
2022/12/10 02:44:32;;;;;;;87.95;27.40;;;;;;;7.97;89.11;99224.22;3139411;28;20048;-69
2022/12/10 02:46:06;;;;;;;80.50;26.58;;;;;;;8.10;88.88;99249.59;3139212;28;20314;-68
2022/12/10 02:47:40;;;;;;;69.20;25.15;;;;;;;8.09;89.16;99242.75;3139427;28;20056;-69
2022/12/10 02:49:14;;;;;;;73.90;25.73;;;;;;;8.06;88.64;99237.69;3139041;28;20117;-70
2022/12/10 02:50:46;;;;;;;68.20;25.63;;;;;;;8.10;88.99;99244.41;3139362;28;20748;-68
2022/12/10 02:52:20;;;;;;;75.70;26.27;;;;;;;7.73;88.82;99187.22;3139326;28;20458;-68
2022/12/10 02:54:00;;;;;;;70.38;25.00;;;;;;;8.09;88.92;99243.56;3139324;28;20053;-69
2022/12/10 02:55:43;;;;;;;68.57;23.67;;;;;;;8.08;88.54;99228.94;3126834;28;20094;-68
2022/12/10 02:57:32;;;;;;;70.80;24.92;;;;;;;8.07;88.55;99229.81;3126818;28;20102;-69
2022/12/10 02:59:15;;;;;;;68.82;24.67;;;;;;;8.07;88.91;99229.00;3127107;28;20052;-68
2022/12/10 03:00:56;;;;;;;65.85;24.38;;;;;;;8.05;88.81;99221.28;3139409;28;20113;-69
2022/12/10 03:02:34;;;;;;;70.60;25.73;;;;;;;8.00;88.81;99202.50;3127236;28;20134;-70
2022/12/10 03:04:12;;;;;;;75.10;25.30;;;;;;;8.04;88.95;99213.56;3129166;28;20060;-68
2022/12/10 03:05:50;;;;;;;64.90;23.27;;;;;;;8.04;89.00;99224.78;3132194;28;20095;-68
2022/12/10 03:07:28;;;;;;;69.18;25.25;;;;;;;8.00;88.67;99206.84;3143796;28;20048;-68
2022/12/10 03:09:06;;;;;;;72.38;24.58;;;;;;;8.04;88.94;99218.75;3144563;28;20048;-68
2022/12/10 03:10:44;;;;;;;66.22;25.40;;;;;;;8.04;89.07;99213.56;3144171;28;20134;-68
2022/12/10 03:12:26;;;;;;;67.55;22.80;;;;;;;8.00;88.82;99217.22;3144038;28;20131;-68
2022/12/10 03:14:01;;;;;;;68.50;23.73;;;;;;;8.00;88.95;99212.03;3144197;28;20052;-69
2022/12/10 03:15:35;;;;;;;71.45;22.38;;;;;;;8.03;89.15;99227.44;3144246;28;20084;-68
2022/12/10 03:17:07;;;;;;;64.05;23.05;;;;;;;7.95;88.80;99209.63;3144283;28;20495;-68
2022/12/10 03:18:40;;;;;;;67.05;23.90;;;;;;;8.02;88.74;99211.06;3144297;28;20117;-68
2022/12/10 03:20:15;;;;;;;64.07;23.52;;;;;;;8.01;89.01;99205.91;3144182;28;20083;-68
2022/12/10 03:21:50;;;;;;;64.05;23.23;;;;;;;7.96;88.70;99206.97;3144668;28;20056;-68
2022/12/10 03:23:21;;;;;;;66.03;24.00;;;;;;;7.89;88.77;99187.41;3143521;28;20041;-68
2022/12/10 03:24:54;;;;;;;59.92;22.73;;;;;;;7.93;88.76;99196.75;3145305;28;20059;-68
2022/12/10 03:26:25;;;;;;;68.10;24.25;;;;;;;7.92;88.92;99192.44;3146789;28;20048;-68
2022/12/10 03:28:00;;;;;;;63.53;24.05;;;;;;;7.97;89.20;99200.03;3145698;28;20099;-69
2022/12/10 03:29:34;;;;;;;62.53;23.45;;;;;;;7.97;89.32;99200.88;3136471;28;20079;-69
2022/12/10 03:31:08;;;;;;;67.63;24.67;;;;;;;7.98;89.16;99209.50;3145637;28;20202;-69
2022/12/10 03:32:39;;;;;;;68.97;24.30;;;;;;;7.98;89.13;99217.25;3146691;28;20063;-69
2022/12/10 03:34:14;;;;;;;63.25;24.20;;;;;;;8.00;89.25;99196.47;3146846;28;20378;-69
2022/12/10 03:35:46;;;;;;;61.05;23.95;;;;;;;8.00;89.27;99189.53;3146686;28;20484;-70
2022/12/10 03:37:18;;;;;;;70.80;25.08;;;;;;;8.00;89.49;99197.31;3146265;28;20506;-70
2022/12/10 03:38:51;;;;;;;73.05;24.88;;;;;;;8.01;89.02;99198.16;3146414;28;20510;-70
2022/12/10 03:40:24;;;;;;;78.55;25.38;;;;;;;7.83;89.15;99156.56;3146896;28;20529;-69
2022/12/10 03:41:56;;;;;;;69.63;24.52;;;;;;;7.95;89.17;99184.53;3146213;28;20125;-69
2022/12/10 03:43:27;;;;;;;65.70;24.10;;;;;;;8.01;89.09;99188.59;3146595;28;20053;-69
2022/12/10 03:44:59;;;;;;;66.30;23.45;;;;;;;8.01;89.13;99187.78;3146345;28;20056;-69
2022/12/10 03:46:32;;;;;;;62.60;23.90;;;;;;;7.90;89.30;99165.78;3146542;28;20128;-69
2022/12/10 03:48:03;;;;;;;73.32;25.00;;;;;;;7.97;89.26;99187.06;3146477;28;20107;-69
2022/12/10 03:49:37;;;;;;;69.78;24.75;;;;;;;8.01;89.39;99183.41;3146368;28;20154;-69
2022/12/10 03:51:08;;;;;;;66.82;24.23;;;;;;;8.00;89.46;99176.56;3146245;28;20453;-69
2022/12/10 03:52:39;;;;;;;69.75;23.90;;;;;;;8.02;89.37;99173.91;3146634;28;20044;-69
2022/12/10 03:54:11;;;;;;;71.97;25.50;;;;;;;7.98;89.24;99155.88;3146225;28;20082;-68
2022/12/10 03:55:43;;;;;;;67.07;24.67;;;;;;;8.03;89.49;99168.66;3146343;28;20044;-69
2022/12/10 03:57:15;;;;;;;73.47;24.48;;;;;;;8.01;89.24;99174.81;3146466;28;20044;-69
2022/12/10 03:58:47;;;;;;;71.80;24.17;;;;;;;8.00;89.36;99170.53;3146547;28;20067;-69
2022/12/10 04:00:19;;;;;;;69.97;24.73;;;;;;;7.98;89.09;99168.00;3145871;28;20057;-69
2022/12/10 04:01:50;;;;;;;71.85;24.73;;;;;;;8.00;89.57;99180.91;3146169;28;20053;-69
2022/12/10 04:03:22;;;;;;;73.13;25.40;;;;;;;7.95;89.35;99168.13;3146278;28;20152;-71
2022/12/10 04:04:55;;;;;;;82.18;25.60;;;;;;;7.95;89.51;99170.72;3146305;28;20057;-71
2022/12/10 04:06:26;;;;;;;75.18;25.58;;;;;;;7.98;89.43;99181.81;3146313;28;20521;-68
2022/12/10 04:07:58;;;;;;;75.28;23.95;;;;;;;7.98;89.42;99180.97;3145849;28;20056;-68
2022/12/10 04:09:30;;;;;;;76.63;25.13;;;;;;;7.94;89.66;99179.44;3146308;28;20048;-69
2022/12/10 04:11:06;;;;;;;72.63;23.52;;;;;;;7.94;89.65;99179.44;3146002;28;20806;-68
2022/12/10 04:12:37;;;;;;;69.13;23.95;;;;;;;7.93;89.40;99188.97;3146236;28;20056;-69
2022/12/10 04:17:49;;;;;;;63.00;21.80;;;;;;;7.83;89.64;99172.13;3134272;28;20053;-69
2022/12/10 04:19:21;;;;;;;68.82;22.05;;;;;;;7.91;89.79;99183.00;3145600;28;20436;-69
2022/12/10 04:28:27;;;;;;;64.70;21.48;;;;;;;7.89;89.93;99174.44;3095631;28;20103;-70
2022/12/10 04:30:00;;;;;;;65.72;21.63;;;;;;;7.87;90.00;99184.06;3095015;28;20058;-69
2022/12/10 04:31:30;;;;;;;63.28;21.20;;;;;;;7.90;89.81;99183.91;3145975;28;20149;-69
2022/12/10 04:33:02;;;;;;;59.95;21.50;;;;;;;7.91;90.16;99184.75;3146027;28;20121;-70
2022/12/10 04:34:33;;;;;;;55.35;20.85;;;;;;;7.92;89.92;99189.03;3146145;28;20106;-70
2022/12/10 04:36:07;;;;;;;67.25;21.08;;;;;;;7.88;90.20;99175.34;3145229;28;20052;-70
2022/12/10 04:37:39;;;;;;;57.60;20.52;;;;;;;7.93;89.96;99185.53;3145727;28;20052;-70
2022/12/10 04:39:11;;;;;;;61.63;20.80;;;;;;;7.92;89.91;99187.25;3145750;28;20070;-70
2022/12/10 04:40:43;;;;;;;72.63;21.38;;;;;;;7.89;89.88;99178.78;3146211;28;20044;-69
2022/12/10 04:42:15;;;;;;;60.47;21.92;;;;;;;7.93;90.02;99201.09;3145917;28;20052;-69
2022/12/10 04:43:46;;;;;;;67.40;20.77;;;;;;;7.91;89.81;99201.16;3145643;28;20036;-69
2022/12/10 04:45:18;;;;;;;61.30;21.50;;;;;;;7.92;90.05;99195.03;3145610;28;20543;-70
2022/12/10 04:46:49;;;;;;;59.28;21.83;;;;;;;7.92;90.19;99200.22;3145989;28;20428;-69
2022/12/10 04:48:21;;;;;;;63.35;19.50;;;;;;;7.91;90.02;99193.38;3145865;28;20260;-70
2022/12/10 04:49:52;;;;;;;66.82;20.45;;;;;;;7.93;89.95;99195.91;3145815;28;20544;-70
2022/12/10 04:51:25;;;;;;;60.60;20.10;;;;;;;7.86;90.26;99190.13;3145778;28;20047;-70
2022/12/10 04:52:57;;;;;;;62.47;20.45;;;;;;;7.89;90.16;99205.53;3145604;28;20049;-70
2022/12/10 04:54:29;;;;;;;62.38;21.38;;;;;;;7.87;90.01;99191.84;3141858;28;20052;-70
2022/12/10 04:56:04;;;;;;;58.58;22.30;;;;;;;7.86;90.51;99179.75;3136137;28;20052;-69
2022/12/10 04:57:36;;;;;;;65.85;21.05;;;;;;;7.87;90.35;99186.66;3136082;28;20071;-69
2022/12/10 04:59:09;;;;;;;56.63;19.70;;;;;;;7.74;90.10;99152.63;3136570;28;20087;-69
2022/12/10 05:00:41;;;;;;;58.70;18.50;;;;;;;7.88;90.54;99180.53;3136904;28;20150;-69
2022/12/10 05:02:13;;;;;;;53.83;18.92;;;;;;;7.87;90.17;99173.69;3135938;28;20506;-69
2022/12/10 05:03:44;;;;;;;56.05;19.70;;;;;;;7.74;90.33;99146.59;3135576;28;20048;-69
2022/12/10 05:05:16;;;;;;;63.53;20.13;;;;;;;7.48;90.25;99094.19;3136115;28;20056;-70
2022/12/10 05:06:50;;;;;;;59.72;19.38;;;;;;;7.86;90.30;99158.19;3136885;28;20121;-71
2022/12/10 05:08:22;;;;;;;55.97;18.85;;;;;;;7.85;90.29;99162.53;3135485;28;20064;-71
2022/12/10 05:09:54;;;;;;;54.35;18.33;;;;;;;7.79;90.45;99159.38;3135703;28;20098;-70
2022/12/10 05:11:27;;;;;;;58.83;18.27;;;;;;;7.78;90.41;99160.25;3135000;28;20048;-70
2022/12/10 05:12:59;;;;;;;57.65;18.85;;;;;;;7.81;90.63;99166.19;3135207;28;20096;-70
2022/12/10 05:14:30;;;;;;;54.13;17.48;;;;;;;7.82;90.51;99178.22;3135873;28;20052;-69
2022/12/10 05:16:03;;;;;;;55.17;17.80;;;;;;;7.82;90.90;99188.59;3135106;28;20117;-69
2022/12/10 05:17:35;;;;;;;51.35;17.73;;;;;;;7.81;90.89;99184.31;3135231;28;20502;-70
2022/12/10 05:19:07;;;;;;;51.55;17.80;;;;;;;7.82;91.12;99175.63;3135859;28;20048;-69
2022/12/10 05:20:38;;;;;;;60.40;18.40;;;;;;;7.83;90.85;99185.06;3135189;28;20080;-71
2022/12/10 05:24:01;;;;;;;57.17;18.92;;;;;;;7.83;90.89;99195.44;3135400;28;20045;-70
2022/12/10 05:25:52;;;;;;;53.03;18.35;;;;;;;7.83;91.05;99189.44;3135733;28;20492;-70
2022/12/10 05:27:24;;;;;;;60.60;19.08;;;;;;;7.82;91.12;99178.22;3135131;28;20055;-71
2022/12/10 05:28:58;;;;;;;56.55;18.10;;;;;;;7.83;91.06;99172.13;3131957;28;20875;-70
2022/12/10 05:30:30;;;;;;;54.25;17.27;;;;;;;7.85;91.00;99187.63;3136320;28;20086;-70
2022/12/10 05:32:03;;;;;;;55.53;19.20;;;;;;;7.86;91.06;99178.91;3135139;28;20141;-70
2022/12/10 05:33:34;;;;;;;48.20;17.75;;;;;;;7.83;91.29;99168.69;3135750;28;20461;-69
2022/12/10 05:35:07;;;;;;;58.40;19.30;;;;;;;7.88;91.02;99180.53;3136071;28;20233;-69
2022/12/10 05:36:38;;;;;;;57.85;19.77;;;;;;;7.89;91.03;99178.78;3135334;28;20087;-69
2022/12/10 05:38:12;;;;;;;54.70;18.55;;;;;;;7.91;91.05;99187.34;3134080;28;20056;-71
2022/12/10 05:39:43;;;;;;;53.55;18.10;;;;;;;7.89;91.16;99179.63;3135263;28;20063;-69
2022/12/10 05:41:17;;;;;;;52.38;17.80;;;;;;;7.90;90.99;99173.53;3123767;28;20049;-69
2022/12/10 05:42:49;;;;;;;56.25;19.75;;;;;;;7.90;91.28;99175.31;3123339;28;20061;-69
2022/12/10 05:44:21;;;;;;;56.83;19.48;;;;;;;7.90;90.95;99180.50;3122832;28;20048;-70
2022/12/10 05:45:52;;;;;;;69.10;20.45;;;;;;;7.87;91.07;99181.47;3125995;28;20056;-70
2022/12/10 05:47:24;;;;;;;60.13;19.73;;;;;;;7.90;91.10;99175.31;3131639;28;20049;-70
2022/12/10 05:48:55;;;;;;;64.85;20.45;;;;;;;7.90;91.28;99175.31;3129823;28;20076;-69
2022/12/10 05:50:27;;;;;;;58.72;19.67;;;;;;;7.92;90.91;99173.47;3123338;28;20049;-68
2022/12/10 05:51:59;;;;;;;67.75;20.23;;;;;;;7.91;91.22;99174.38;3122790;28;20060;-68
2022/12/10 05:53:33;;;;;;;60.78;20.70;;;;;;;7.92;90.98;99174.28;3124351;28;20060;-68
2022/12/10 05:55:06;;;;;;;70.45;21.55;;;;;;;7.87;91.29;99157.28;3135350;28;20045;-68
2022/12/10 05:56:38;;;;;;;69.70;20.57;;;;;;;7.91;91.42;99169.19;3135602;28;20052;-69
2022/12/10 05:58:10;;;;;;;71.53;22.10;;;;;;;7.86;91.25;99156.44;3135164;28;20330;-69
2022/12/10 05:59:44;;;;;;;61.20;20.20;;;;;;;7.50;91.13;99105.31;3135765;28;20106;-68
2022/12/10 06:01:15;;;;;;;;;;;;;;;7.86;91.18;99160.78;3136486;28;20094;-69
2022/12/10 06:02:47;;;;;;;57.22;18.85;;;;;;;7.83;91.27;99159.16;3128541;28;19934;-68
2022/12/10 06:04:19;;;;;;;61.30;19.27;;;;;;;7.89;91.58;99166.66;3124941;28;20469;-68
2022/12/10 06:05:51;;;;;;;63.30;19.33;;;;;;;7.92;91.22;99165.69;3136063;28;20052;-67
2022/12/10 06:07:23;;;;;;;55.33;18.77;;;;;;;7.94;91.25;99166.47;3136163;28;20098;-67
2022/12/10 06:08:56;;;;;;;54.55;18.85;;;;;;;7.95;91.02;99166.38;3135871;28;20052;-66
2022/12/10 06:10:29;;;;;;;57.50;18.95;;;;;;;7.94;91.26;99169.91;3135526;28;20087;-66
2022/12/10 06:12:00;;;;;;;58.13;18.55;;;;;;;7.97;91.00;99166.34;3134158;28;20084;-65
2022/12/10 06:13:31;;;;;;;56.00;18.05;;;;;;;7.95;91.29;99165.56;3134706;28;20463;-67
2022/12/10 06:15:07;;;;;;;59.58;18.88;;;;;;;7.99;91.27;99164.53;3134914;28;20303;-68
2022/12/10 06:16:41;;;;;;;58.17;19.25;;;;;;;7.28;90.99;99051.03;3135772;28;20677;-68
2022/12/10 06:18:13;;;;;;;58.63;20.27;;;;;;;7.83;91.27;99124.63;3135562;28;20048;-70
2022/12/10 06:19:46;;;;;;;50.10;18.03;;;;;;;8.01;91.27;99148.88;3134470;28;20056;-72
2022/12/10 06:21:18;;;;;;;54.72;17.75;;;;;;;8.01;90.85;99157.50;3133846;28;20052;-68
2022/12/10 06:22:50;;;;;;;50.50;17.52;;;;;;;8.02;90.75;99164.38;3133056;28;20057;-70
2022/12/10 06:24:24;;;;;;;48.05;16.73;;;;;;;8.05;91.11;99147.84;3133672;28;20195;-70
2022/12/10 06:25:55;;;;;;;;;;;;;;;7.98;90.96;99157.63;3135261;28;20126;-69
2022/12/10 06:27:30;;;;;;;43.40;15.07;;;;;;;8.00;90.94;99155.00;3134900;28;20487;-71
2022/12/10 06:29:02;;;;;;;46.28;15.30;;;;;;;8.02;90.71;99148.00;3134117;28;20079;-69
2022/12/10 06:30:35;;;;;;;41.33;14.73;;;;;;;8.03;90.78;99160.03;3134125;28;20062;-70
2022/12/10 06:32:07;;;;;;;45.75;15.40;;;;;;;8.02;90.91;99155.78;3134579;28;20110;-72
2022/12/10 06:33:39;;;;;;;82.03;35.78;;;;;;;8.07;90.78;99156.38;3133128;28;20083;-69
2022/12/10 06:35:11;;;;;;;89.20;39.45;;;;;;;8.08;90.90;99158.91;3134919;28;20599;-68
2022/12/10 06:36:43;;;;;;;76.43;30.97;;;;;;;8.12;91.02;99162.22;3134743;28;20116;-70
2022/12/10 06:38:15;;;;;;;65.82;25.20;;;;;;;8.10;91.21;99157.06;3134603;28;20396;-70
2022/12/10 06:39:51;;;;;;;68.03;23.77;;;;;;;8.07;90.97;99156.38;3134405;28;20052;-70
2022/12/10 06:41:23;;;;;;;117.60;56.40;;;;;;;8.20;90.96;99179.09;3134410;28;20060;-71
2022/12/10 06:42:55;;;;;;;162.60;75.28;;;;;;;7.86;91.11;99104.59;3135868;28;20055;-68
2022/12/10 06:44:27;;;;;;;103.57;45.50;;;;;;;8.26;91.27;99161.59;3132413;28;20053;-69
2022/12/10 06:45:58;;;;;;;50.47;19.55;;;;;;;8.28;91.15;99171.00;3134930;28;20843;-69
2022/12/10 06:47:30;;;;;;;52.03;18.05;;;;;;;8.19;91.13;99140.25;3134608;28;20060;-68
2022/12/10 06:49:02;;;;;;;56.33;19.13;;;;;;;7.64;91.07;99036.50;3135066;28;20475;-69
2022/12/10 06:50:34;;;;;;;51.00;18.17;;;;;;;8.35;91.16;99162.00;3132078;28;20490;-68
2022/12/10 06:52:06;;;;;;;92.88;37.53;;;;;;;8.37;91.13;99156.72;3134133;28;20044;-69
2022/12/10 06:53:51;;;;;;;219.52;90.95;;;;;;;8.38;90.83;99159.28;3135535;28;20442;-69
2022/12/10 06:55:24;;;;;;;118.47;53.63;;;;;;;8.38;91.14;99167.06;3143644;28;20040;-69
2022/12/10 06:56:56;;;;;;;70.43;30.55;;;;;;;8.43;90.94;99172.06;3143158;28;20052;-71
2022/12/10 06:58:29;;;;;;;52.47;21.00;;;;;;;8.46;91.03;99174.53;3143405;28;20049;-70
2022/12/10 07:00:01;;;;;;;51.75;19.08;;;;;;;8.42;90.96;99163.41;3143539;28;20182;-72
2022/12/10 07:01:33;;;;;;;50.67;18.50;;;;;;;8.46;90.91;99163.28;3142850;28;20071;-68
2022/12/10 07:03:05;;;;;;;54.72;18.95;;;;;;;8.38;90.66;99148.91;3131767;28;20445;-67
2022/12/10 07:04:37;;;;;;;53.83;19.92;;;;;;;8.47;90.75;99170.16;3131899;28;20155;-68
2022/12/10 07:06:10;;;;;;;59.05;19.45;;;;;;;8.47;90.59;99157.19;3131651;28;20102;-68
2022/12/10 07:07:42;;;;;;;58.85;20.13;;;;;;;8.49;90.85;99169.19;3136512;28;20049;-67
2022/12/10 07:09:14;;;;;;;59.95;20.98;;;;;;;8.51;90.44;99171.69;3142903;28;20053;-68
2022/12/10 07:10:46;;;;;;;58.42;18.70;;;;;;;8.45;90.67;99159.84;3132185;28;20479;-67
2022/12/10 07:12:18;;;;;;;58.50;18.80;;;;;;;8.52;90.69;99173.38;3143789;28;20059;-69
2022/12/10 07:13:50;;;;;;;56.85;19.58;;;;;;;8.51;90.54;99179.47;3144541;28;20082;-66
2022/12/10 07:15:23;;;;;;;57.22;19.35;;;;;;;8.52;90.30;99176.81;3144159;28;20045;-66
2022/12/10 07:16:55;;;;;;;55.95;18.60;;;;;;;8.47;90.27;99154.59;3144803;28;20528;-67
2022/12/10 07:18:27;;;;;;;58.53;17.73;;;;;;;8.56;90.46;99159.34;3133914;28;20506;-67
2022/12/10 07:19:59;;;;;;;49.28;16.67;;;;;;;8.57;90.33;99154.06;3137604;28;20061;-68
2022/12/10 07:21:32;;;;;;;58.95;20.50;;;;;;;8.59;90.43;99164.41;3142085;28;20044;-66
2022/12/10 07:23:04;;;;;;;49.63;17.42;;;;;;;8.60;90.50;99166.06;3144344;28;20044;-68
2022/12/10 07:24:37;;;;;;;52.40;17.13;;;;;;;8.28;90.35;99120.84;3143927;28;20510;-70
2022/12/10 07:26:10;;;;;;;49.83;16.73;;;;;;;8.52;90.41;99142.22;3144199;28;20052;-69
2022/12/10 07:27:42;;;;;;;48.20;15.88;;;;;;;8.64;90.76;99158.06;3144320;28;20066;-69
2022/12/10 07:29:15;;;;;;;52.08;17.35;;;;;;;8.65;90.40;99143.34;3144532;28;20106;-66